sensor_id;sensor_type;location;lat;lon;timestamp;P1;durP1;ratioP1;P2;durP2;ratioP2
51718;SDS011;37795;53.236;5.704;2023-02-28T00:00:30;7.63;;;3.25;;
51718;SDS011;37795;53.236;5.704;2023-02-28T00:02:56;2.43;;;1.90;;
51718;SDS011;37795;53.236;5.704;2023-02-28T00:05:23;4.73;;;2.87;;
51718;SDS011;37795;53.236;5.704;2023-02-28T00:07:50;3.08;;;2.45;;
51718;SDS011;37795;53.236;5.704;2023-02-28T00:10:17;4.77;;;2.27;;
51718;SDS011;37795;53.236;5.704;2023-02-28T00:12:49;7.57;;;2.75;;
51718;SDS011;37795;53.236;5.704;2023-02-28T00:15:16;9.82;;;2.95;;
51718;SDS011;37795;53.236;5.704;2023-02-28T00:17:42;4.10;;;2.17;;
51718;SDS011;37795;53.236;5.704;2023-02-28T00:20:08;4.00;;;2.13;;
51718;SDS011;37795;53.236;5.704;2023-02-28T00:22:43;8.05;;;2.25;;
51718;SDS011;37795;53.236;5.704;2023-02-28T00:25:11;10.00;;;3.72;;
51718;SDS011;37795;53.236;5.704;2023-02-28T00:27:42;5.05;;;2.13;;
51718;SDS011;37795;53.236;5.704;2023-02-28T00:30:10;4.45;;;2.90;;
51718;SDS011;37795;53.236;5.704;2023-02-28T00:32:37;8.45;;;3.13;;
51718;SDS011;37795;53.236;5.704;2023-02-28T00:35:03;5.10;;;2.27;;
51718;SDS011;37795;53.236;5.704;2023-02-28T00:37:30;4.78;;;3.20;;
51718;SDS011;37795;53.236;5.704;2023-02-28T00:39:56;4.83;;;2.93;;
51718;SDS011;37795;53.236;5.704;2023-02-28T00:42:21;9.40;;;3.73;;
51718;SDS011;37795;53.236;5.704;2023-02-28T00:44:48;3.45;;;2.17;;
51718;SDS011;37795;53.236;5.704;2023-02-28T00:47:13;6.83;;;2.70;;
51718;SDS011;37795;53.236;5.704;2023-02-28T00:49:39;6.03;;;2.17;;
51718;SDS011;37795;53.236;5.704;2023-02-28T00:52:05;5.87;;;2.20;;
51718;SDS011;37795;53.236;5.704;2023-02-28T00:54:30;11.70;;;2.93;;
51718;SDS011;37795;53.236;5.704;2023-02-28T00:56:56;4.60;;;2.63;;
51718;SDS011;37795;53.236;5.704;2023-02-28T00:59:22;10.27;;;3.03;;
51718;SDS011;37795;53.236;5.704;2023-02-28T01:01:48;10.43;;;2.80;;
51718;SDS011;37795;53.236;5.704;2023-02-28T01:04:14;11.63;;;3.03;;
51718;SDS011;37795;53.236;5.704;2023-02-28T01:06:40;5.63;;;2.17;;
51718;SDS011;37795;53.236;5.704;2023-02-28T01:09:06;3.53;;;1.60;;
51718;SDS011;37795;53.236;5.704;2023-02-28T01:11:32;6.82;;;2.50;;
51718;SDS011;37795;53.236;5.704;2023-02-28T01:13:58;6.72;;;2.50;;
51718;SDS011;37795;53.236;5.704;2023-02-28T01:16:24;11.45;;;2.55;;
51718;SDS011;37795;53.236;5.704;2023-02-28T01:18:51;9.50;;;2.35;;
51718;SDS011;37795;53.236;5.704;2023-02-28T01:21:17;6.37;;;2.80;;
51718;SDS011;37795;53.236;5.704;2023-02-28T01:23:45;7.22;;;2.30;;
51718;SDS011;37795;53.236;5.704;2023-02-28T01:26:15;4.13;;;2.10;;
51718;SDS011;37795;53.236;5.704;2023-02-28T01:28:43;9.48;;;2.88;;
51718;SDS011;37795;53.236;5.704;2023-02-28T01:31:09;5.03;;;2.47;;
51718;SDS011;37795;53.236;5.704;2023-02-28T01:33:36;4.78;;;2.95;;
51718;SDS011;37795;53.236;5.704;2023-02-28T01:36:03;5.57;;;3.00;;
51718;SDS011;37795;53.236;5.704;2023-02-28T01:38:31;7.30;;;2.75;;
51718;SDS011;37795;53.236;5.704;2023-02-28T01:40:58;9.63;;;2.38;;
51718;SDS011;37795;53.236;5.704;2023-02-28T01:43:25;4.47;;;2.43;;
51718;SDS011;37795;53.236;5.704;2023-02-28T01:45:54;5.13;;;2.78;;
51718;SDS011;37795;53.236;5.704;2023-02-28T01:48:23;5.10;;;2.40;;
51718;SDS011;37795;53.236;5.704;2023-02-28T01:50:51;3.95;;;1.90;;
51718;SDS011;37795;53.236;5.704;2023-02-28T01:53:23;6.10;;;2.47;;
51718;SDS011;37795;53.236;5.704;2023-02-28T01:55:53;5.10;;;2.33;;
51718;SDS011;37795;53.236;5.704;2023-02-28T01:58:19;4.43;;;2.55;;
51718;SDS011;37795;53.236;5.704;2023-02-28T02:00:45;5.00;;;2.17;;
51718;SDS011;37795;53.236;5.704;2023-02-28T02:03:15;13.97;;;2.70;;
51718;SDS011;37795;53.236;5.704;2023-02-28T02:05:44;9.20;;;2.50;;
51718;SDS011;37795;53.236;5.704;2023-02-28T02:08:13;3.80;;;1.52;;
51718;SDS011;37795;53.236;5.704;2023-02-28T02:10:49;6.05;;;2.05;;
51718;SDS011;37795;53.236;5.704;2023-02-28T02:13:38;6.38;;;2.45;;
51718;SDS011;37795;53.236;5.704;2023-02-28T02:22:30;6.70;;;3.25;;
51718;SDS011;37795;53.236;5.704;2023-02-28T02:27:54;2.75;;;2.50;;
51718;SDS011;37795;53.236;5.704;2023-02-28T02:33:28;4.03;;;2.60;;
51718;SDS011;37795;53.236;5.704;2023-02-28T02:36:04;3.10;;;2.28;;
51718;SDS011;37795;53.236;5.704;2023-02-28T02:38:52;8.10;;;2.65;;
51718;SDS011;37795;53.236;5.704;2023-02-28T02:44:20;4.30;;;2.13;;
51718;SDS011;37795;53.236;5.704;2023-02-28T02:46:58;3.90;;;2.30;;
51718;SDS011;37795;53.236;5.704;2023-02-28T02:49:31;7.50;;;2.25;;
51718;SDS011;37795;53.236;5.704;2023-02-28T02:52:01;2.47;;;2.22;;
51718;SDS011;37795;53.236;5.704;2023-02-28T02:54:36;3.10;;;2.10;;
51718;SDS011;37795;53.236;5.704;2023-02-28T02:57:40;7.78;;;2.30;;
51718;SDS011;37795;53.236;5.704;2023-02-28T03:00:01;2.58;;;2.35;;
51718;SDS011;37795;53.236;5.704;2023-02-28T03:02:32;5.38;;;2.00;;
51718;SDS011;37795;53.236;5.704;2023-02-28T03:05:01;5.10;;;2.70;;
51718;SDS011;37795;53.236;5.704;2023-02-28T03:07:31;5.38;;;2.13;;
51718;SDS011;37795;53.236;5.704;2023-02-28T03:09:57;4.73;;;2.03;;
51718;SDS011;37795;53.236;5.704;2023-02-28T03:12:23;10.43;;;2.33;;
51718;SDS011;37795;53.236;5.704;2023-02-28T03:15:27;9.68;;;2.35;;
51718;SDS011;37795;53.236;5.704;2023-02-28T03:18:10;3.00;;;2.13;;
51718;SDS011;37795;53.236;5.704;2023-02-28T03:23:38;3.67;;;2.45;;
51718;SDS011;37795;53.236;5.704;2023-02-28T03:26:15;5.80;;;2.53;;
51718;SDS011;37795;53.236;5.704;2023-02-28T03:28:49;6.63;;;2.50;;
51718;SDS011;37795;53.236;5.704;2023-02-28T03:31:41;10.55;;;2.95;;
51718;SDS011;37795;53.236;5.704;2023-02-28T03:34:14;4.88;;;2.58;;
51718;SDS011;37795;53.236;5.704;2023-02-28T03:36:55;6.07;;;2.20;;
51718;SDS011;37795;53.236;5.704;2023-02-28T03:42:29;11.05;;;2.72;;
51718;SDS011;37795;53.236;5.704;2023-02-28T03:45:08;3.72;;;2.40;;
51718;SDS011;37795;53.236;5.704;2023-02-28T03:52:50;2.80;;;2.22;;
51718;SDS011;37795;53.236;5.704;2023-02-28T03:55:18;4.28;;;2.20;;
51718;SDS011;37795;53.236;5.704;2023-02-28T04:00:40;7.93;;;2.40;;
51718;SDS011;37795;53.236;5.704;2023-02-28T04:03:18;6.75;;;2.35;;
51718;SDS011;37795;53.236;5.704;2023-02-28T04:05:53;2.87;;;1.83;;
51718;SDS011;37795;53.236;5.704;2023-02-28T04:08:21;5.68;;;2.28;;
51718;SDS011;37795;53.236;5.704;2023-02-28T04:10:50;2.83;;;2.10;;
51718;SDS011;37795;53.236;5.704;2023-02-28T04:13:29;5.30;;;1.70;;
51718;SDS011;37795;53.236;5.704;2023-02-28T04:15:54;8.13;;;2.07;;
51718;SDS011;37795;53.236;5.704;2023-02-28T04:18:20;9.03;;;2.47;;
51718;SDS011;37795;53.236;5.704;2023-02-28T04:20:46;5.83;;;1.93;;
51718;SDS011;37795;53.236;5.704;2023-02-28T04:23:11;10.80;;;2.10;;
51718;SDS011;37795;53.236;5.704;2023-02-28T04:25:37;3.10;;;1.37;;
51718;SDS011;37795;53.236;5.704;2023-02-28T04:28:05;2.55;;;1.63;;
51718;SDS011;37795;53.236;5.704;2023-02-28T04:30:31;2.75;;;1.70;;
51718;SDS011;37795;53.236;5.704;2023-02-28T04:35:25;5.75;;;2.05;;
51718;SDS011;37795;53.236;5.704;2023-02-28T04:37:50;5.33;;;2.13;;
51718;SDS011;37795;53.236;5.704;2023-02-28T04:40:16;6.90;;;2.70;;
51718;SDS011;37795;53.236;5.704;2023-02-28T04:42:42;6.47;;;2.20;;
51718;SDS011;37795;53.236;5.704;2023-02-28T04:45:07;7.70;;;2.83;;
51718;SDS011;37795;53.236;5.704;2023-02-28T04:47:35;5.18;;;2.88;;
51718;SDS011;37795;53.236;5.704;2023-02-28T04:50:01;9.80;;;2.42;;
51718;SDS011;37795;53.236;5.704;2023-02-28T04:52:28;11.23;;;2.28;;
51718;SDS011;37795;53.236;5.704;2023-02-28T04:54:54;4.60;;;2.50;;
51718;SDS011;37795;53.236;5.704;2023-02-28T04:57:20;3.33;;;2.20;;
51718;SDS011;37795;53.236;5.704;2023-02-28T04:59:46;6.17;;;2.20;;
51718;SDS011;37795;53.236;5.704;2023-02-28T05:02:12;8.25;;;2.55;;
51718;SDS011;37795;53.236;5.704;2023-02-28T05:04:38;1.97;;;1.60;;
51718;SDS011;37795;53.236;5.704;2023-02-28T05:07:03;5.67;;;2.20;;
51718;SDS011;37795;53.236;5.704;2023-02-28T05:09:29;7.33;;;2.23;;
51718;SDS011;37795;53.236;5.704;2023-02-28T05:11:55;3.67;;;2.20;;
51718;SDS011;37795;53.236;5.704;2023-02-28T05:14:21;14.27;;;2.58;;
51718;SDS011;37795;53.236;5.704;2023-02-28T05:16:47;4.53;;;2.30;;
51718;SDS011;37795;53.236;5.704;2023-02-28T05:19:12;5.87;;;2.00;;
51718;SDS011;37795;53.236;5.704;2023-02-28T05:21:39;8.23;;;2.33;;
51718;SDS011;37795;53.236;5.704;2023-02-28T05:24:08;9.77;;;2.72;;
51718;SDS011;37795;53.236;5.704;2023-02-28T05:26:36;9.18;;;2.63;;
51718;SDS011;37795;53.236;5.704;2023-02-28T05:29:03;8.02;;;2.17;;
51718;SDS011;37795;53.236;5.704;2023-02-28T05:31:30;11.35;;;3.05;;
51718;SDS011;37795;53.236;5.704;2023-02-28T05:33:56;9.30;;;2.70;;
51718;SDS011;37795;53.236;5.704;2023-02-28T05:36:21;4.50;;;2.03;;
51718;SDS011;37795;53.236;5.704;2023-02-28T05:38:47;4.80;;;2.37;;
51718;SDS011;37795;53.236;5.704;2023-02-28T05:41:14;6.43;;;1.88;;
51718;SDS011;37795;53.236;5.704;2023-02-28T05:43:40;10.82;;;2.17;;
51718;SDS011;37795;53.236;5.704;2023-02-28T05:46:07;12.03;;;2.43;;
51718;SDS011;37795;53.236;5.704;2023-02-28T05:48:35;5.70;;;2.55;;
51718;SDS011;37795;53.236;5.704;2023-02-28T05:51:02;6.20;;;2.42;;
51718;SDS011;37795;53.236;5.704;2023-02-28T05:53:29;10.52;;;2.90;;
51718;SDS011;37795;53.236;5.704;2023-02-28T05:55:54;9.33;;;2.43;;
51718;SDS011;37795;53.236;5.704;2023-02-28T05:58:20;5.53;;;2.67;;
51718;SDS011;37795;53.236;5.704;2023-02-28T06:00:47;10.23;;;2.65;;
51718;SDS011;37795;53.236;5.704;2023-02-28T06:03:13;9.35;;;2.95;;
51718;SDS011;37795;53.236;5.704;2023-02-28T06:05:39;5.77;;;2.60;;
51718;SDS011;37795;53.236;5.704;2023-02-28T06:08:04;4.30;;;2.57;;
51718;SDS011;37795;53.236;5.704;2023-02-28T06:10:32;7.32;;;2.67;;
51718;SDS011;37795;53.236;5.704;2023-02-28T06:13:02;8.95;;;2.75;;
51718;SDS011;37795;53.236;5.704;2023-02-28T06:15:29;6.63;;;2.92;;
51718;SDS011;37795;53.236;5.704;2023-02-28T06:17:55;8.50;;;2.77;;
51718;SDS011;37795;53.236;5.704;2023-02-28T06:20:22;8.88;;;3.10;;
51718;SDS011;37795;53.236;5.704;2023-02-28T06:22:48;12.10;;;3.58;;
51718;SDS011;37795;53.236;5.704;2023-02-28T06:25:16;9.00;;;2.97;;
51718;SDS011;37795;53.236;5.704;2023-02-28T06:27:42;5.38;;;2.55;;
51718;SDS011;37795;53.236;5.704;2023-02-28T06:30:08;8.03;;;2.57;;
51718;SDS011;37795;53.236;5.704;2023-02-28T06:32:35;9.20;;;3.03;;
51718;SDS011;37795;53.236;5.704;2023-02-28T06:35:01;6.17;;;3.23;;
51718;SDS011;37795;53.236;5.704;2023-02-28T06:37:27;14.82;;;3.33;;
51718;SDS011;37795;53.236;5.704;2023-02-28T06:39:54;14.13;;;3.27;;
51718;SDS011;37795;53.236;5.704;2023-02-28T06:42:21;5.28;;;2.50;;
51718;SDS011;37795;53.236;5.704;2023-02-28T06:44:50;7.82;;;2.78;;
51718;SDS011;37795;53.236;5.704;2023-02-28T06:47:16;14.25;;;2.97;;
51718;SDS011;37795;53.236;5.704;2023-02-28T06:49:41;16.10;;;3.20;;
51718;SDS011;37795;53.236;5.704;2023-02-28T06:57:36;7.75;;;6.97;;
51718;SDS011;37795;53.236;5.704;2023-02-28T07:00:06;6.17;;;5.47;;
51718;SDS011;37795;53.236;5.704;2023-02-28T07:02:34;7.53;;;5.43;;
51718;SDS011;37795;53.236;5.704;2023-02-28T07:05:00;7.63;;;6.90;;
51718;SDS011;37795;53.236;5.704;2023-02-28T07:07:26;8.77;;;7.07;;
51718;SDS011;37795;53.236;5.704;2023-02-28T07:09:52;7.47;;;6.70;;
51718;SDS011;37795;53.236;5.704;2023-02-28T07:12:17;8.80;;;7.97;;
51718;SDS011;37795;53.236;5.704;2023-02-28T07:14:43;7.43;;;6.07;;
51718;SDS011;37795;53.236;5.704;2023-02-28T07:17:09;10.70;;;8.80;;
51718;SDS011;37795;53.236;5.704;2023-02-28T07:19:37;7.90;;;7.18;;
51718;SDS011;37795;53.236;5.704;2023-02-28T07:22:04;7.43;;;6.72;;
51718;SDS011;37795;53.236;5.704;2023-02-28T07:24:30;7.50;;;6.80;;
51718;SDS011;37795;53.236;5.704;2023-02-28T07:26:56;6.87;;;6.23;;
51718;SDS011;37795;53.236;5.704;2023-02-28T07:29:21;8.13;;;6.90;;
51718;SDS011;37795;53.236;5.704;2023-02-28T07:31:47;8.53;;;7.70;;
51718;SDS011;37795;53.236;5.704;2023-02-28T07:34:15;6.65;;;6.05;;
51718;SDS011;37795;53.236;5.704;2023-02-28T07:36:41;8.67;;;7.80;;
51718;SDS011;37795;53.236;5.704;2023-02-28T07:39:06;9.85;;;7.82;;
51718;SDS011;37795;53.236;5.704;2023-02-28T07:41:34;10.98;;;9.15;;
51718;SDS011;37795;53.236;5.704;2023-02-28T07:44:04;10.30;;;8.38;;
51718;SDS011;37795;53.236;5.704;2023-02-28T07:46:30;9.73;;;8.73;;
51718;SDS011;37795;53.236;5.704;2023-02-28T07:49:00;9.20;;;7.95;;
51718;SDS011;37795;53.236;5.704;2023-02-28T07:51:28;8.68;;;7.82;;
51718;SDS011;37795;53.236;5.704;2023-02-28T07:53:54;9.75;;;7.40;;
51718;SDS011;37795;53.236;5.704;2023-02-28T07:56:20;9.73;;;8.83;;
51718;SDS011;37795;53.236;5.704;2023-02-28T07:58:46;8.47;;;7.67;;
51718;SDS011;37795;53.236;5.704;2023-02-28T08:01:12;11.23;;;9.83;;
51718;SDS011;37795;53.236;5.704;2023-02-28T08:03:38;10.63;;;9.55;;
51718;SDS011;37795;53.236;5.704;2023-02-28T08:06:05;9.40;;;8.50;;
51718;SDS011;37795;53.236;5.704;2023-02-28T08:08:33;9.18;;;7.47;;
51718;SDS011;37795;53.236;5.704;2023-02-28T08:10:59;9.25;;;8.32;;
51718;SDS011;37795;53.236;5.704;2023-02-28T08:13:26;8.95;;;8.05;;
51718;SDS011;37795;53.236;5.704;2023-02-28T08:15:53;9.10;;;8.27;;
51718;SDS011;37795;53.236;5.704;2023-02-28T08:18:20;9.63;;;8.63;;
51718;SDS011;37795;53.236;5.704;2023-02-28T08:20:46;9.95;;;8.98;;
51718;SDS011;37795;53.236;5.704;2023-02-28T08:23:12;10.03;;;9.07;;
51718;SDS011;37795;53.236;5.704;2023-02-28T08:25:38;9.95;;;9.05;;
51718;SDS011;37795;53.236;5.704;2023-02-28T08:28:04;8.17;;;7.37;;
51718;SDS011;37795;53.236;5.704;2023-02-28T08:30:29;11.77;;;10.60;;
51718;SDS011;37795;53.236;5.704;2023-02-28T08:32:55;9.70;;;8.80;;
51718;SDS011;37795;53.236;5.704;2023-02-28T08:35:21;9.40;;;8.43;;
51718;SDS011;37795;53.236;5.704;2023-02-28T08:37:48;10.57;;;9.07;;
51718;SDS011;37795;53.236;5.704;2023-02-28T08:40:14;10.05;;;8.93;;
51718;SDS011;37795;53.236;5.704;2023-02-28T08:42:46;10.43;;;9.20;;
51718;SDS011;37795;53.236;5.704;2023-02-28T08:45:13;10.98;;;9.98;;
51718;SDS011;37795;53.236;5.704;2023-02-28T08:47:39;11.40;;;10.00;;
51718;SDS011;37795;53.236;5.704;2023-02-28T08:50:06;12.93;;;11.73;;
51718;SDS011;37795;53.236;5.704;2023-02-28T08:52:32;11.15;;;9.93;;
51718;SDS011;37795;53.236;5.704;2023-02-28T08:54:58;11.18;;;10.15;;
51718;SDS011;37795;53.236;5.704;2023-02-28T08:57:24;11.27;;;10.17;;
51718;SDS011;37795;53.236;5.704;2023-02-28T08:59:53;12.93;;;11.48;;
51718;SDS011;37795;53.236;5.704;2023-02-28T09:02:18;14.10;;;10.25;;
51718;SDS011;37795;53.236;5.704;2023-02-28T09:04:44;15.20;;;10.57;;
51718;SDS011;37795;53.236;5.704;2023-02-28T09:07:10;13.00;;;11.70;;
51718;SDS011;37795;53.236;5.704;2023-02-28T09:09:37;11.60;;;10.40;;
51718;SDS011;37795;53.236;5.704;2023-02-28T09:12:03;11.87;;;10.50;;
51718;SDS011;37795;53.236;5.704;2023-02-28T09:14:30;12.18;;;10.25;;
51718;SDS011;37795;53.236;5.704;2023-02-28T09:16:56;10.90;;;9.88;;
51718;SDS011;37795;53.236;5.704;2023-02-28T09:19:21;14.85;;;12.20;;
51718;SDS011;37795;53.236;5.704;2023-02-28T09:21:47;14.47;;;12.90;;
51718;SDS011;37795;53.236;5.704;2023-02-28T09:24:13;14.53;;;12.87;;
51718;SDS011;37795;53.236;5.704;2023-02-28T09:26:40;18.42;;;14.00;;
51718;SDS011;37795;53.236;5.704;2023-02-28T09:29:06;13.97;;;12.73;;
51718;SDS011;37795;53.236;5.704;2023-02-28T09:31:31;14.90;;;12.80;;
51718;SDS011;37795;53.236;5.704;2023-02-28T09:33:57;14.25;;;12.70;;
51718;SDS011;37795;53.236;5.704;2023-02-28T09:36:24;13.10;;;11.25;;
51718;SDS011;37795;53.236;5.704;2023-02-28T09:38:51;14.68;;;13.05;;
51718;SDS011;37795;53.236;5.704;2023-02-28T09:41:21;16.17;;;12.07;;
51718;SDS011;37795;53.236;5.704;2023-02-28T09:43:52;14.80;;;13.20;;
51718;SDS011;37795;53.236;5.704;2023-02-28T09:46:25;12.43;;;11.25;;
51718;SDS011;37795;53.236;5.704;2023-02-28T09:48:56;13.52;;;9.40;;
51718;SDS011;37795;53.236;5.704;2023-02-28T09:51:37;11.70;;;10.50;;
51718;SDS011;37795;53.236;5.704;2023-02-28T09:54:06;11.10;;;9.75;;
51718;SDS011;37795;53.236;5.704;2023-02-28T09:56:47;11.68;;;9.02;;
51718;SDS011;37795;53.236;5.704;2023-02-28T10:02:53;11.07;;;9.98;;
51718;SDS011;37795;53.236;5.704;2023-02-28T10:10:26;10.43;;;9.40;;
51718;SDS011;37795;53.236;5.704;2023-02-28T10:13:21;11.65;;;10.00;;
51718;SDS011;37795;53.236;5.704;2023-02-28T10:16:31;10.60;;;9.52;;
51718;SDS011;37795;53.236;5.704;2023-02-28T10:19:22;10.82;;;9.30;;
51718;SDS011;37795;53.236;5.704;2023-02-28T10:22:11;18.08;;;10.18;;
51718;SDS011;37795;53.236;5.704;2023-02-28T10:24:43;10.35;;;8.73;;
51718;SDS011;37795;53.236;5.704;2023-02-28T10:27:14;8.68;;;7.78;;
51718;SDS011;37795;53.236;5.704;2023-02-28T10:29:45;10.77;;;9.55;;
51718;SDS011;37795;53.236;5.704;2023-02-28T10:32:14;13.00;;;9.70;;
51718;SDS011;37795;53.236;5.704;2023-02-28T10:34:43;15.35;;;10.07;;
51718;SDS011;37795;53.236;5.704;2023-02-28T10:37:10;10.32;;;9.32;;
51718;SDS011;37795;53.236;5.704;2023-02-28T10:42:23;11.98;;;10.07;;
51718;SDS011;37795;53.236;5.704;2023-02-28T10:45:12;11.40;;;10.20;;
51718;SDS011;37795;53.236;5.704;2023-02-28T10:47:54;12.32;;;10.60;;
51718;SDS011;37795;53.236;5.704;2023-02-28T10:57:33;9.23;;;7.53;;
51718;SDS011;37795;53.236;5.704;2023-02-28T11:00:33;11.75;;;8.30;;
51718;SDS011;37795;53.236;5.704;2023-02-28T11:02:57;9.45;;;7.85;;
51718;SDS011;37795;53.236;5.704;2023-02-28T11:05:30;9.70;;;8.70;;
51718;SDS011;37795;53.236;5.704;2023-02-28T11:08:10;11.68;;;8.55;;
51718;SDS011;37795;53.236;5.704;2023-02-28T11:10:47;9.75;;;8.80;;
51718;SDS011;37795;53.236;5.704;2023-02-28T11:13:19;11.30;;;8.57;;
51718;SDS011;37795;53.236;5.704;2023-02-28T11:15:52;9.00;;;7.97;;
51718;SDS011;37795;53.236;5.704;2023-02-28T11:18:29;10.48;;;7.28;;
51718;SDS011;37795;53.236;5.704;2023-02-28T11:21:01;6.90;;;6.30;;
51718;SDS011;37795;53.236;5.704;2023-02-28T11:23:29;9.07;;;6.60;;
51718;SDS011;37795;53.236;5.704;2023-02-28T11:25:58;6.88;;;5.85;;
51718;SDS011;37795;53.236;5.704;2023-02-28T11:28:28;10.55;;;6.82;;
51718;SDS011;37795;53.236;5.704;2023-02-28T11:31:03;6.05;;;5.53;;
51718;SDS011;37795;53.236;5.704;2023-02-28T11:33:45;7.10;;;5.85;;
51718;SDS011;37795;53.236;5.704;2023-02-28T11:38:43;7.95;;;5.97;;
51718;SDS011;37795;53.236;5.704;2023-02-28T11:49:28;5.93;;;5.45;;
51718;SDS011;37795;53.236;5.704;2023-02-28T11:57:35;6.90;;;5.57;;
51718;SDS011;37795;53.236;5.704;2023-02-28T12:05:54;8.63;;;4.72;;
51718;SDS011;37795;53.236;5.704;2023-02-28T12:14:28;9.00;;;5.63;;
51718;SDS011;37795;53.236;5.704;2023-02-28T12:17:16;5.78;;;4.95;;
51718;SDS011;37795;53.236;5.704;2023-02-28T12:28:10;4.97;;;3.92;;
51718;SDS011;37795;53.236;5.704;2023-02-28T12:30:41;7.47;;;4.97;;
51718;SDS011;37795;53.236;5.704;2023-02-28T12:33:14;6.53;;;4.15;;
51718;SDS011;37795;53.236;5.704;2023-02-28T12:35:58;7.13;;;5.57;;
51718;SDS011;37795;53.236;5.704;2023-02-28T12:38:27;4.82;;;4.22;;
51718;SDS011;37795;53.236;5.704;2023-02-28T12:41:08;5.20;;;4.55;;
51718;SDS011;37795;53.236;5.704;2023-02-28T12:43:43;5.85;;;5.13;;
51718;SDS011;37795;53.236;5.704;2023-02-28T12:46:19;5.35;;;4.85;;
51718;SDS011;37795;53.236;5.704;2023-02-28T12:51:21;8.38;;;5.13;;
51718;SDS011;37795;53.236;5.704;2023-02-28T12:56:30;6.57;;;5.15;;
51718;SDS011;37795;53.236;5.704;2023-02-28T12:59:03;8.07;;;5.97;;
51718;SDS011;37795;53.236;5.704;2023-02-28T13:09:39;6.68;;;4.72;;
51718;SDS011;37795;53.236;5.704;2023-02-28T13:12:14;5.50;;;5.00;;
51718;SDS011;37795;53.236;5.704;2023-02-28T13:14:41;6.60;;;4.88;;
51718;SDS011;37795;53.236;5.704;2023-02-28T13:19:41;5.90;;;4.22;;
51718;SDS011;37795;53.236;5.704;2023-02-28T13:22:17;7.07;;;5.90;;
51718;SDS011;37795;53.236;5.704;2023-02-28T13:24:46;7.10;;;5.20;;
51718;SDS011;37795;53.236;5.704;2023-02-28T13:29:39;8.37;;;4.20;;
51718;SDS011;37795;53.236;5.704;2023-02-28T13:39:54;6.32;;;4.95;;
51718;SDS011;37795;53.236;5.704;2023-02-28T13:47:36;7.60;;;4.80;;
51718;SDS011;37795;53.236;5.704;2023-02-28T13:55:28;6.15;;;4.28;;
51718;SDS011;37795;53.236;5.704;2023-02-28T13:58:08;7.28;;;5.10;;
51718;SDS011;37795;53.236;5.704;2023-02-28T14:01:06;6.07;;;4.78;;
51718;SDS011;37795;53.236;5.704;2023-02-28T14:11:42;4.68;;;4.28;;
51718;SDS011;37795;53.236;5.704;2023-02-28T14:14:10;5.05;;;4.15;;
51718;SDS011;37795;53.236;5.704;2023-02-28T14:17:02;4.75;;;4.30;;
51718;SDS011;37795;53.236;5.704;2023-02-28T14:19:30;6.38;;;4.70;;
51718;SDS011;37795;53.236;5.704;2023-02-28T14:32:51;5.65;;;4.38;;
51718;SDS011;37795;53.236;5.704;2023-02-28T14:41:04;6.25;;;4.72;;
51718;SDS011;37795;53.236;5.704;2023-02-28T14:43:47;5.68;;;4.88;;
51718;SDS011;37795;53.236;5.704;2023-02-28T14:46:14;6.43;;;4.43;;
51718;SDS011;37795;53.236;5.704;2023-02-28T14:48:42;4.85;;;4.35;;
51718;SDS011;37795;53.236;5.704;2023-02-28T14:51:11;5.70;;;4.97;;
51718;SDS011;37795;53.236;5.704;2023-02-28T14:53:42;6.80;;;5.25;;
51718;SDS011;37795;53.236;5.704;2023-02-28T14:59:24;11.13;;;5.80;;
51718;SDS011;37795;53.236;5.704;2023-02-28T15:07:22;6.13;;;5.33;;
51718;SDS011;37795;53.236;5.704;2023-02-28T15:10:06;5.80;;;5.25;;
51718;SDS011;37795;53.236;5.704;2023-02-28T15:12:34;5.40;;;4.93;;
51718;SDS011;37795;53.236;5.704;2023-02-28T15:15:01;5.18;;;4.72;;
51718;SDS011;37795;53.236;5.704;2023-02-28T15:17:27;5.97;;;5.10;;
51718;SDS011;37795;53.236;5.704;2023-02-28T15:19:53;7.68;;;5.38;;
51718;SDS011;37795;53.236;5.704;2023-02-28T15:22:23;7.57;;;5.32;;
51718;SDS011;37795;53.236;5.704;2023-02-28T15:24:56;7.20;;;5.55;;
51718;SDS011;37795;53.236;5.704;2023-02-28T15:27:29;7.40;;;6.13;;
51718;SDS011;37795;53.236;5.704;2023-02-28T15:30:04;7.65;;;5.70;;
51718;SDS011;37795;53.236;5.704;2023-02-28T15:32:34;6.32;;;5.45;;
51718;SDS011;37795;53.236;5.704;2023-02-28T15:40:29;5.95;;;4.78;;
51718;SDS011;37795;53.236;5.704;2023-02-28T15:45:31;5.80;;;5.28;;
51718;SDS011;37795;53.236;5.704;2023-02-28T15:48:04;5.68;;;5.18;;
51718;SDS011;37795;53.236;5.704;2023-02-28T15:50:37;5.88;;;5.38;;
51718;SDS011;37795;53.236;5.704;2023-02-28T15:53:03;5.00;;;4.50;;
51718;SDS011;37795;53.236;5.704;2023-02-28T15:55:29;5.70;;;5.20;;
51718;SDS011;37795;53.236;5.704;2023-02-28T15:58:00;8.63;;;5.63;;
51718;SDS011;37795;53.236;5.704;2023-02-28T16:00:30;9.95;;;5.25;;
51718;SDS011;37795;53.236;5.704;2023-02-28T16:02:59;5.85;;;5.28;;
51718;SDS011;37795;53.236;5.704;2023-02-28T16:05:26;6.07;;;5.47;;
51718;SDS011;37795;53.236;5.704;2023-02-28T16:07:56;6.97;;;5.25;;
51718;SDS011;37795;53.236;5.704;2023-02-28T16:10:26;5.50;;;5.00;;
51718;SDS011;37795;53.236;5.704;2023-02-28T16:12:54;6.68;;;5.30;;
51718;SDS011;37795;53.236;5.704;2023-02-28T16:17:48;6.20;;;5.00;;
51718;SDS011;37795;53.236;5.704;2023-02-28T16:22:44;5.78;;;4.55;;
51718;SDS011;37795;53.236;5.704;2023-02-28T16:25:11;5.60;;;5.10;;
51718;SDS011;37795;53.236;5.704;2023-02-28T16:27:41;6.38;;;4.93;;
51718;SDS011;37795;53.236;5.704;2023-02-28T16:30:15;5.55;;;4.80;;
51718;SDS011;37795;53.236;5.704;2023-02-28T16:32:47;5.10;;;4.60;;
51718;SDS011;37795;53.236;5.704;2023-02-28T16:35:13;6.18;;;4.93;;
51718;SDS011;37795;53.236;5.704;2023-02-28T16:37:39;5.55;;;5.05;;
51718;SDS011;37795;53.236;5.704;2023-02-28T16:40:18;5.82;;;5.30;;
51718;SDS011;37795;53.236;5.704;2023-02-28T16:42:46;5.75;;;4.72;;
51718;SDS011;37795;53.236;5.704;2023-02-28T16:45:31;5.65;;;5.10;;
51718;SDS011;37795;53.236;5.704;2023-02-28T16:47:57;6.75;;;5.40;;
51718;SDS011;37795;53.236;5.704;2023-02-28T16:50:24;6.77;;;5.87;;
51718;SDS011;37795;53.236;5.704;2023-02-28T16:52:51;5.88;;;5.25;;
51718;SDS011;37795;53.236;5.704;2023-02-28T16:55:19;6.03;;;5.00;;
51718;SDS011;37795;53.236;5.704;2023-02-28T16:57:56;5.53;;;4.35;;
51718;SDS011;37795;53.236;5.704;2023-02-28T17:00:24;6.22;;;5.63;;
51718;SDS011;37795;53.236;5.704;2023-02-28T17:02:51;9.00;;;5.78;;
51718;SDS011;37795;53.236;5.704;2023-02-28T17:05:16;5.27;;;4.80;;
51718;SDS011;37795;53.236;5.704;2023-02-28T17:07:43;6.22;;;5.63;;
51718;SDS011;37795;53.236;5.704;2023-02-28T17:12:36;6.07;;;5.30;;
51718;SDS011;37795;53.236;5.704;2023-02-28T17:15:02;5.93;;;5.33;;
51718;SDS011;37795;53.236;5.704;2023-02-28T17:17:27;5.37;;;4.80;;
51718;SDS011;37795;53.236;5.704;2023-02-28T17:19:54;6.03;;;5.43;;
51718;SDS011;37795;53.236;5.704;2023-02-28T17:22:20;6.83;;;6.13;;
51718;SDS011;37795;53.236;5.704;2023-02-28T17:24:45;6.83;;;6.23;;
51718;SDS011;37795;53.236;5.704;2023-02-28T17:27:12;7.70;;;6.23;;
51718;SDS011;37795;53.236;5.704;2023-02-28T17:29:38;7.82;;;5.88;;
51718;SDS011;37795;53.236;5.704;2023-02-28T17:32:04;6.53;;;5.82;;
51718;SDS011;37795;53.236;5.704;2023-02-28T17:34:30;6.93;;;6.23;;
51718;SDS011;37795;53.236;5.704;2023-02-28T17:36:55;6.63;;;6.10;;
51718;SDS011;37795;53.236;5.704;2023-02-28T17:39:21;6.67;;;5.33;;
51718;SDS011;37795;53.236;5.704;2023-02-28T17:41:53;6.70;;;6.00;;
51718;SDS011;37795;53.236;5.704;2023-02-28T17:44:19;6.00;;;5.38;;
51718;SDS011;37795;53.236;5.704;2023-02-28T17:46:46;8.73;;;6.45;;
51718;SDS011;37795;53.236;5.704;2023-02-28T17:49:13;7.97;;;5.70;;
51718;SDS011;37795;53.236;5.704;2023-02-28T17:51:38;8.70;;;6.03;;
51718;SDS011;37795;53.236;5.704;2023-02-28T17:54:04;7.83;;;6.47;;